sensor_id;sensor_type;location;lat;lon;timestamp;P1;durP1;ratioP1;P2;durP2;ratioP2
13356;SDS011;6747;56.456;-3.120;2023-11-19T00:00:48;6.65;;;2.90;;
13356;SDS011;6747;56.456;-3.120;2023-11-19T00:03:16;4.68;;;2.88;;
13356;SDS011;6747;56.456;-3.120;2023-11-19T00:05:44;3.13;;;2.58;;
13356;SDS011;6747;56.456;-3.120;2023-11-19T00:08:13;6.50;;;3.42;;
13356;SDS011;6747;56.456;-3.120;2023-11-19T00:10:40;7.38;;;3.13;;
13356;SDS011;6747;56.456;-3.120;2023-11-19T00:13:08;5.13;;;3.30;;
13356;SDS011;6747;56.456;-3.120;2023-11-19T00:15:35;5.40;;;3.22;;
13356;SDS011;6747;56.456;-3.120;2023-11-19T00:18:04;4.38;;;3.10;;
13356;SDS011;6747;56.456;-3.120;2023-11-19T00:20:31;3.40;;;3.00;;
13356;SDS011;6747;56.456;-3.120;2023-11-19T00:22:58;4.85;;;2.78;;
13356;SDS011;6747;56.456;-3.120;2023-11-19T00:25:29;4.35;;;3.35;;
13356;SDS011;6747;56.456;-3.120;2023-11-19T00:27:56;3.63;;;2.67;;
13356;SDS011;6747;56.456;-3.120;2023-11-19T00:30:24;3.42;;;2.80;;
13356;SDS011;6747;56.456;-3.120;2023-11-19T00:32:52;3.30;;;3.00;;
13356;SDS011;6747;56.456;-3.120;2023-11-19T00:35:20;7.30;;;3.20;;
13356;SDS011;6747;56.456;-3.120;2023-11-19T00:37:47;5.28;;;3.33;;
13356;SDS011;6747;56.456;-3.120;2023-11-19T00:40:15;3.72;;;3.08;;
13356;SDS011;6747;56.456;-3.120;2023-11-19T00:42:44;3.20;;;2.90;;
13356;SDS011;6747;56.456;-3.120;2023-11-19T00:45:12;4.28;;;3.40;;
13356;SDS011;6747;56.456;-3.120;2023-11-19T00:47:40;3.55;;;3.15;;
13356;SDS011;6747;56.456;-3.120;2023-11-19T00:50:08;5.75;;;3.15;;
13356;SDS011;6747;56.456;-3.120;2023-11-19T00:52:36;3.83;;;2.92;;
13356;SDS011;6747;56.456;-3.120;2023-11-19T00:55:04;4.55;;;3.30;;
13356;SDS011;6747;56.456;-3.120;2023-11-19T00:57:31;4.05;;;3.25;;
13356;SDS011;6747;56.456;-3.120;2023-11-19T01:00:01;3.67;;;3.20;;
13356;SDS011;6747;56.456;-3.120;2023-11-19T01:02:34;5.30;;;3.20;;
13356;SDS011;6747;56.456;-3.120;2023-11-19T01:05:01;4.00;;;3.35;;
13356;SDS011;6747;56.456;-3.120;2023-11-19T01:07:29;5.88;;;3.35;;
13356;SDS011;6747;56.456;-3.120;2023-11-19T01:09:57;6.22;;;3.53;;
13356;SDS011;6747;56.456;-3.120;2023-11-19T01:12:25;4.60;;;3.92;;
13356;SDS011;6747;56.456;-3.120;2023-11-19T01:14:52;7.60;;;3.88;;
13356;SDS011;6747;56.456;-3.120;2023-11-19T01:17:21;4.97;;;3.38;;
13356;SDS011;6747;56.456;-3.120;2023-11-19T01:19:49;4.53;;;3.90;;
13356;SDS011;6747;56.456;-3.120;2023-11-19T01:22:16;4.28;;;3.65;;
13356;SDS011;6747;56.456;-3.120;2023-11-19T01:24:44;6.55;;;4.10;;
13356;SDS011;6747;56.456;-3.120;2023-11-19T01:27:12;6.18;;;4.35;;
13356;SDS011;6747;56.456;-3.120;2023-11-19T01:29:40;7.88;;;4.32;;
13356;SDS011;6747;56.456;-3.120;2023-11-19T01:32:08;6.03;;;4.22;;
13356;SDS011;6747;56.456;-3.120;2023-11-19T01:34:37;7.53;;;3.75;;
13356;SDS011;6747;56.456;-3.120;2023-11-19T01:37:04;6.88;;;3.90;;
13356;SDS011;6747;56.456;-3.120;2023-11-19T01:39:32;10.70;;;4.68;;
13356;SDS011;6747;56.456;-3.120;2023-11-19T01:41:59;6.57;;;3.65;;
13356;SDS011;6747;56.456;-3.120;2023-11-19T01:44:27;6.15;;;3.53;;
13356;SDS011;6747;56.456;-3.120;2023-11-19T01:46:54;4.47;;;3.20;;
13356;SDS011;6747;56.456;-3.120;2023-11-19T01:49:22;5.03;;;3.22;;
13356;SDS011;6747;56.456;-3.120;2023-11-19T01:51:51;3.78;;;3.00;;
13356;SDS011;6747;56.456;-3.120;2023-11-19T01:54:19;3.92;;;2.78;;
13356;SDS011;6747;56.456;-3.120;2023-11-19T01:56:47;5.28;;;2.70;;
13356;SDS011;6747;56.456;-3.120;2023-11-19T01:59:14;5.47;;;2.50;;
13356;SDS011;6747;56.456;-3.120;2023-11-19T02:01:42;5.05;;;2.65;;
13356;SDS011;6747;56.456;-3.120;2023-11-19T02:04:09;2.42;;;2.22;;
13356;SDS011;6747;56.456;-3.120;2023-11-19T02:06:40;4.28;;;2.38;;
13356;SDS011;6747;56.456;-3.120;2023-11-19T02:09:09;3.92;;;2.08;;
13356;SDS011;6747;56.456;-3.120;2023-11-19T02:11:36;2.50;;;2.08;;
13356;SDS011;6747;56.456;-3.120;2023-11-19T02:14:06;3.95;;;2.00;;
13356;SDS011;6747;56.456;-3.120;2023-11-19T02:16:34;4.97;;;2.03;;
13356;SDS011;6747;56.456;-3.120;2023-11-19T02:19:01;2.13;;;1.30;;
13356;SDS011;6747;56.456;-3.120;2023-11-19T02:21:31;2.25;;;1.42;;
13356;SDS011;6747;56.456;-3.120;2023-11-19T02:23:59;3.80;;;1.63;;
13356;SDS011;6747;56.456;-3.120;2023-11-19T02:26:28;3.95;;;1.80;;
13356;SDS011;6747;56.456;-3.120;2023-11-19T02:29:02;2.35;;;1.50;;
13356;SDS011;6747;56.456;-3.120;2023-11-19T02:31:29;4.38;;;1.33;;
13356;SDS011;6747;56.456;-3.120;2023-11-19T02:33:57;3.10;;;1.40;;
13356;SDS011;6747;56.456;-3.120;2023-11-19T02:36:25;1.80;;;1.35;;
13356;SDS011;6747;56.456;-3.120;2023-11-19T02:38:52;1.83;;;1.38;;
13356;SDS011;6747;56.456;-3.120;2023-11-19T02:41:20;1.95;;;1.40;;
13356;SDS011;6747;56.456;-3.120;2023-11-19T02:43:47;2.45;;;1.20;;
13356;SDS011;6747;56.456;-3.120;2023-11-19T02:46:17;1.52;;;1.38;;
13356;SDS011;6747;56.456;-3.120;2023-11-19T02:48:44;3.50;;;1.30;;
13356;SDS011;6747;56.456;-3.120;2023-11-19T02:51:12;1.30;;;1.20;;
13356;SDS011;6747;56.456;-3.120;2023-11-19T02:53:38;3.60;;;1.30;;
13356;SDS011;6747;56.456;-3.120;2023-11-19T02:56:06;4.20;;;1.63;;
13356;SDS011;6747;56.456;-3.120;2023-11-19T02:58:42;2.58;;;1.42;;
13356;SDS011;6747;56.456;-3.120;2023-11-19T03:01:10;1.55;;;1.45;;
13356;SDS011;6747;56.456;-3.120;2023-11-19T03:03:49;2.15;;;1.17;;
13356;SDS011;6747;56.456;-3.120;2023-11-19T03:06:19;2.35;;;1.40;;
13356;SDS011;6747;56.456;-3.120;2023-11-19T03:08:48;4.50;;;1.50;;
13356;SDS011;6747;56.456;-3.120;2023-11-19T03:11:15;2.63;;;1.42;;
13356;SDS011;6747;56.456;-3.120;2023-11-19T03:13:43;4.25;;;1.70;;
13356;SDS011;6747;56.456;-3.120;2023-11-19T03:16:11;3.22;;;1.70;;
13356;SDS011;6747;56.456;-3.120;2023-11-19T03:18:39;2.88;;;1.52;;
13356;SDS011;6747;56.456;-3.120;2023-11-19T03:21:08;2.00;;;1.20;;
13356;SDS011;6747;56.456;-3.120;2023-11-19T03:23:36;3.78;;;1.42;;
13356;SDS011;6747;56.456;-3.120;2023-11-19T03:26:05;3.70;;;1.13;;
13356;SDS011;6747;56.456;-3.120;2023-11-19T03:28:34;1.15;;;0.90;;
13356;SDS011;6747;56.456;-3.120;2023-11-19T03:31:04;3.00;;;1.08;;
13356;SDS011;6747;56.456;-3.120;2023-11-19T03:33:33;5.00;;;1.30;;
13356;SDS011;6747;56.456;-3.120;2023-11-19T03:36:01;2.33;;;1.10;;
13356;SDS011;6747;56.456;-3.120;2023-11-19T03:38:30;2.33;;;1.58;;
13356;SDS011;6747;56.456;-3.120;2023-11-19T03:40:57;4.03;;;1.40;;
13356;SDS011;6747;56.456;-3.120;2023-11-19T03:43:25;4.10;;;1.30;;
13356;SDS011;6747;56.456;-3.120;2023-11-19T03:45:52;3.97;;;1.08;;
13356;SDS011;6747;56.456;-3.120;2023-11-19T03:48:20;2.92;;;1.17;;
13356;SDS011;6747;56.456;-3.120;2023-11-19T03:50:47;1.95;;;1.20;;
13356;SDS011;6747;56.456;-3.120;2023-11-19T03:53:15;5.03;;;1.42;;
13356;SDS011;6747;56.456;-3.120;2023-11-19T03:55:45;3.38;;;1.27;;
13356;SDS011;6747;56.456;-3.120;2023-11-19T03:58:12;3.58;;;1.00;;
13356;SDS011;6747;56.456;-3.120;2023-11-19T04:00:40;2.60;;;1.13;;
13356;SDS011;6747;56.456;-3.120;2023-11-19T04:03:07;4.55;;;1.10;;
13356;SDS011;6747;56.456;-3.120;2023-11-19T04:05:35;3.08;;;1.17;;
13356;SDS011;6747;56.456;-3.120;2023-11-19T04:08:03;4.40;;;1.58;;
13356;SDS011;6747;56.456;-3.120;2023-11-19T04:10:31;3.15;;;1.33;;
13356;SDS011;6747;56.456;-3.120;2023-11-19T04:13:00;4.32;;;1.77;;
13356;SDS011;6747;56.456;-3.120;2023-11-19T04:15:28;4.65;;;1.42;;
13356;SDS011;6747;56.456;-3.120;2023-11-19T04:17:55;5.35;;;1.23;;
13356;SDS011;6747;56.456;-3.120;2023-11-19T04:20:23;4.55;;;1.38;;
13356;SDS011;6747;56.456;-3.120;2023-11-19T04:22:50;4.63;;;1.60;;
13356;SDS011;6747;56.456;-3.120;2023-11-19T04:25:18;5.32;;;1.67;;
13356;SDS011;6747;56.456;-3.120;2023-11-19T04:27:46;5.25;;;1.65;;
13356;SDS011;6747;56.456;-3.120;2023-11-19T04:30:15;5.18;;;1.58;;
13356;SDS011;6747;56.456;-3.120;2023-11-19T04:32:43;4.85;;;1.65;;
13356;SDS011;6747;56.456;-3.120;2023-11-19T04:35:10;4.60;;;1.42;;
13356;SDS011;6747;56.456;-3.120;2023-11-19T04:37:38;3.65;;;1.65;;
13356;SDS011;6747;56.456;-3.120;2023-11-19T04:40:06;6.57;;;1.65;;
13356;SDS011;6747;56.456;-3.120;2023-11-19T04:42:34;6.72;;;1.60;;
13356;SDS011;6747;56.456;-3.120;2023-11-19T04:45:02;5.47;;;1.73;;
13356;SDS011;6747;56.456;-3.120;2023-11-19T04:47:32;5.35;;;1.83;;
13356;SDS011;6747;56.456;-3.120;2023-11-19T04:50:00;5.00;;;1.58;;
13356;SDS011;6747;56.456;-3.120;2023-11-19T04:52:28;5.93;;;1.55;;
13356;SDS011;6747;56.456;-3.120;2023-11-19T04:54:56;6.85;;;1.73;;
13356;SDS011;6747;56.456;-3.120;2023-11-19T04:57:23;4.70;;;1.60;;
13356;SDS011;6747;56.456;-3.120;2023-11-19T04:59:51;5.95;;;1.40;;
13356;SDS011;6747;56.456;-3.120;2023-11-19T05:02:18;5.65;;;1.65;;
13356;SDS011;6747;56.456;-3.120;2023-11-19T05:04:47;3.72;;;1.42;;
13356;SDS011;6747;56.456;-3.120;2023-11-19T05:07:15;3.75;;;1.42;;
13356;SDS011;6747;56.456;-3.120;2023-11-19T05:09:42;3.05;;;1.10;;
13356;SDS011;6747;56.456;-3.120;2023-11-19T05:12:10;6.05;;;1.60;;
13356;SDS011;6747;56.456;-3.120;2023-11-19T05:14:38;3.75;;;1.50;;
13356;SDS011;6747;56.456;-3.120;2023-11-19T05:17:05;5.95;;;1.83;;
13356;SDS011;6747;56.456;-3.120;2023-11-19T05:19:33;4.18;;;1.50;;
13356;SDS011;6747;56.456;-3.120;2023-11-19T05:22:02;5.60;;;1.60;;
13356;SDS011;6747;56.456;-3.120;2023-11-19T05:24:30;4.57;;;1.40;;
13356;SDS011;6747;56.456;-3.120;2023-11-19T05:26:58;3.58;;;1.15;;
13356;SDS011;6747;56.456;-3.120;2023-11-19T05:29:26;5.75;;;1.45;;
13356;SDS011;6747;56.456;-3.120;2023-11-19T05:31:54;3.97;;;1.45;;
13356;SDS011;6747;56.456;-3.120;2023-11-19T05:34:21;3.20;;;1.20;;
13356;SDS011;6747;56.456;-3.120;2023-11-19T05:36:50;3.03;;;1.27;;
13356;SDS011;6747;56.456;-3.120;2023-11-19T05:39:19;4.55;;;1.35;;
13356;SDS011;6747;56.456;-3.120;2023-11-19T05:41:47;3.65;;;1.70;;
13356;SDS011;6747;56.456;-3.120;2023-11-19T05:44:14;3.53;;;1.30;;
13356;SDS011;6747;56.456;-3.120;2023-11-19T05:46:42;4.30;;;1.42;;
13356;SDS011;6747;56.456;-3.120;2023-11-19T05:49:10;6.20;;;1.88;;
13356;SDS011;6747;56.456;-3.120;2023-11-19T05:51:38;4.85;;;1.40;;
13356;SDS011;6747;56.456;-3.120;2023-11-19T05:54:06;3.28;;;1.25;;
13356;SDS011;6747;56.456;-3.120;2023-11-19T05:56:35;2.80;;;1.23;;
13356;SDS011;6747;56.456;-3.120;2023-11-19T05:59:03;4.35;;;1.30;;
13356;SDS011;6747;56.456;-3.120;2023-11-19T06:01:34;4.00;;;1.48;;
13356;SDS011;6747;56.456;-3.120;2023-11-19T06:04:01;5.70;;;1.33;;
13356;SDS011;6747;56.456;-3.120;2023-11-19T06:06:29;5.63;;;1.20;;
13356;SDS011;6747;56.456;-3.120;2023-11-19T06:08:57;3.58;;;1.13;;
13356;SDS011;6747;56.456;-3.120;2023-11-19T06:11:24;3.75;;;1.40;;
13356;SDS011;6747;56.456;-3.120;2023-11-19T06:13:53;3.60;;;1.48;;
13356;SDS011;6747;56.456;-3.120;2023-11-19T06:16:22;3.90;;;1.10;;
13356;SDS011;6747;56.456;-3.120;2023-11-19T06:18:50;3.17;;;1.20;;
13356;SDS011;6747;56.456;-3.120;2023-11-19T06:21:18;4.50;;;1.52;;
13356;SDS011;6747;56.456;-3.120;2023-11-19T06:23:46;2.75;;;0.82;;
13356;SDS011;6747;56.456;-3.120;2023-11-19T06:26:14;4.45;;;1.27;;
13356;SDS011;6747;56.456;-3.120;2023-11-19T06:28:41;4.75;;;1.38;;
13356;SDS011;6747;56.456;-3.120;2023-11-19T06:31:11;6.15;;;1.48;;
13356;SDS011;6747;56.456;-3.120;2023-11-19T06:33:41;3.55;;;1.35;;
13356;SDS011;6747;56.456;-3.120;2023-11-19T06:36:09;3.22;;;1.15;;
13356;SDS011;6747;56.456;-3.120;2023-11-19T06:38:36;3.15;;;1.40;;
13356;SDS011;6747;56.456;-3.120;2023-11-19T06:41:06;3.47;;;1.25;;
13356;SDS011;6747;56.456;-3.120;2023-11-19T06:43:34;2.00;;;0.93;;
13356;SDS011;6747;56.456;-3.120;2023-11-19T06:46:02;2.88;;;1.25;;
13356;SDS011;6747;56.456;-3.120;2023-11-19T06:48:32;4.13;;;1.15;;
13356;SDS011;6747;56.456;-3.120;2023-11-19T06:51:00;4.05;;;1.20;;
13356;SDS011;6747;56.456;-3.120;2023-11-19T06:53:27;2.13;;;1.00;;
13356;SDS011;6747;56.456;-3.120;2023-11-19T06:55:55;5.07;;;1.00;;
13356;SDS011;6747;56.456;-3.120;2023-11-19T06:58:23;2.72;;;0.82;;
13356;SDS011;6747;56.456;-3.120;2023-11-19T07:00:50;3.83;;;1.52;;
13356;SDS011;6747;56.456;-3.120;2023-11-19T07:03:18;2.47;;;1.27;;
13356;SDS011;6747;56.456;-3.120;2023-11-19T07:05:48;7.22;;;1.10;;
13356;SDS011;6747;56.456;-3.120;2023-11-19T07:08:15;3.60;;;1.05;;
13356;SDS011;6747;56.456;-3.120;2023-11-19T07:10:43;2.45;;;1.13;;
13356;SDS011;6747;56.456;-3.120;2023-11-19T07:13:12;2.40;;;1.00;;
13356;SDS011;6747;56.456;-3.120;2023-11-19T07:15:40;3.20;;;1.00;;
13356;SDS011;6747;56.456;-3.120;2023-11-19T07:18:07;3.15;;;1.20;;
13356;SDS011;6747;56.456;-3.120;2023-11-19T07:20:36;5.43;;;0.95;;
13356;SDS011;6747;56.456;-3.120;2023-11-19T07:23:06;4.53;;;1.10;;
13356;SDS011;6747;56.456;-3.120;2023-11-19T07:25:34;3.28;;;1.20;;
13356;SDS011;6747;56.456;-3.120;2023-11-19T07:28:02;2.22;;;0.93;;
13356;SDS011;6747;56.456;-3.120;2023-11-19T07:30:29;1.85;;;0.80;;
13356;SDS011;6747;56.456;-3.120;2023-11-19T07:32:57;4.20;;;1.23;;
13356;SDS011;6747;56.456;-3.120;2023-11-19T07:35:25;1.58;;;1.00;;
13356;SDS011;6747;56.456;-3.120;2023-11-19T07:37:55;3.78;;;1.20;;
13356;SDS011;6747;56.456;-3.120;2023-11-19T07:40:25;2.80;;;1.20;;
13356;SDS011;6747;56.456;-3.120;2023-11-19T07:42:52;1.40;;;0.82;;
13356;SDS011;6747;56.456;-3.120;2023-11-19T07:45:20;3.20;;;1.10;;
13356;SDS011;6747;56.456;-3.120;2023-11-19T07:47:48;4.03;;;1.00;;
13356;SDS011;6747;56.456;-3.120;2023-11-19T07:50:16;4.03;;;1.30;;
13356;SDS011;6747;56.456;-3.120;2023-11-19T07:52:45;5.72;;;1.23;;
13356;SDS011;6747;56.456;-3.120;2023-11-19T07:55:12;5.00;;;1.55;;
13356;SDS011;6747;56.456;-3.120;2023-11-19T07:57:42;5.43;;;1.65;;
13356;SDS011;6747;56.456;-3.120;2023-11-19T08:00:09;3.40;;;1.20;;
13356;SDS011;6747;56.456;-3.120;2023-11-19T08:02:37;2.53;;;1.30;;
13356;SDS011;6747;56.456;-3.120;2023-11-19T08:05:05;3.22;;;1.50;;
13356;SDS011;6747;56.456;-3.120;2023-11-19T08:07:32;2.50;;;1.10;;
13356;SDS011;6747;56.456;-3.120;2023-11-19T08:09:59;2.78;;;1.25;;
13356;SDS011;6747;56.456;-3.120;2023-11-19T08:12:27;3.72;;;1.40;;
13356;SDS011;6747;56.456;-3.120;2023-11-19T08:14:56;6.43;;;1.63;;
13356;SDS011;6747;56.456;-3.120;2023-11-19T08:17:24;4.95;;;1.52;;
13356;SDS011;6747;56.456;-3.120;2023-11-19T08:19:51;1.63;;;1.10;;
13356;SDS011;6747;56.456;-3.120;2023-11-19T08:22:19;3.95;;;1.50;;
13356;SDS011;6747;56.456;-3.120;2023-11-19T08:24:47;3.03;;;1.52;;
13356;SDS011;6747;56.456;-3.120;2023-11-19T08:27:15;9.35;;;2.20;;
13356;SDS011;6747;56.456;-3.120;2023-11-19T08:29:42;6.70;;;1.88;;
13356;SDS011;6747;56.456;-3.120;2023-11-19T08:32:11;3.53;;;1.90;;
13356;SDS011;6747;56.456;-3.120;2023-11-19T08:34:38;4.10;;;2.10;;
13356;SDS011;6747;56.456;-3.120;2023-11-19T08:37:06;4.63;;;2.15;;
13356;SDS011;6747;56.456;-3.120;2023-11-19T08:39:33;3.50;;;1.90;;
13356;SDS011;6747;56.456;-3.120;2023-11-19T08:42:03;2.75;;;1.60;;
13356;SDS011;6747;56.456;-3.120;2023-11-19T08:44:30;5.72;;;2.22;;
13356;SDS011;6747;56.456;-3.120;2023-11-19T08:46:58;4.95;;;2.10;;
13356;SDS011;6747;56.456;-3.120;2023-11-19T08:49:27;3.75;;;1.90;;
13356;SDS011;6747;56.456;-3.120;2023-11-19T08:51:55;6.30;;;2.40;;
13356;SDS011;6747;56.456;-3.120;2023-11-19T08:54:22;3.65;;;2.17;;
13356;SDS011;6747;56.456;-3.120;2023-11-19T08:56:50;5.40;;;2.10;;
13356;SDS011;6747;56.456;-3.120;2023-11-19T08:59:17;6.32;;;2.42;;
13356;SDS011;6747;56.456;-3.120;2023-11-19T09:01:45;3.17;;;2.05;;
13356;SDS011;6747;56.456;-3.120;2023-11-19T09:04:13;7.22;;;2.63;;
13356;SDS011;6747;56.456;-3.120;2023-11-19T09:06:42;5.15;;;2.20;;
13356;SDS011;6747;56.456;-3.120;2023-11-19T09:09:10;6.20;;;2.45;;
13356;SDS011;6747;56.456;-3.120;2023-11-19T09:11:37;6.75;;;2.38;;
13356;SDS011;6747;56.456;-3.120;2023-11-19T09:14:05;4.40;;;1.90;;
13356;SDS011;6747;56.456;-3.120;2023-11-19T09:16:33;5.68;;;1.98;;
13356;SDS011;6747;56.456;-3.120;2023-11-19T09:19:00;5.00;;;1.90;;
13356;SDS011;6747;56.456;-3.120;2023-11-19T09:21:28;8.77;;;2.42;;
13356;SDS011;6747;56.456;-3.120;2023-11-19T09:23:57;5.07;;;2.00;;
13356;SDS011;6747;56.456;-3.120;2023-11-19T09:26:24;7.43;;;2.17;;
13356;SDS011;6747;56.456;-3.120;2023-11-19T09:28:52;6.00;;;2.05;;
13356;SDS011;6747;56.456;-3.120;2023-11-19T09:31:19;6.68;;;2.33;;
13356;SDS011;6747;56.456;-3.120;2023-11-19T09:33:47;3.08;;;1.70;;
13356;SDS011;6747;56.456;-3.120;2023-11-19T09:36:14;2.72;;;1.90;;
13356;SDS011;6747;56.456;-3.120;2023-11-19T09:38:44;5.07;;;2.13;;
13356;SDS011;6747;56.456;-3.120;2023-11-19T09:41:13;3.00;;;1.80;;
13356;SDS011;6747;56.456;-3.120;2023-11-19T09:43:41;3.08;;;1.75;;
13356;SDS011;6747;56.456;-3.120;2023-11-19T09:46:09;3.72;;;1.80;;
13356;SDS011;6747;56.456;-3.120;2023-11-19T09:48:37;3.58;;;1.75;;
13356;SDS011;6747;56.456;-3.120;2023-11-19T09:51:05;3.33;;;1.70;;
13356;SDS011;6747;56.456;-3.120;2023-11-19T09:53:33;2.58;;;1.70;;
13356;SDS011;6747;56.456;-3.120;2023-11-19T09:56:01;3.28;;;1.88;;
13356;SDS011;6747;56.456;-3.120;2023-11-19T09:58:30;2.28;;;1.40;;
13356;SDS011;6747;56.456;-3.120;2023-11-19T10:00:58;3.88;;;2.22;;
13356;SDS011;6747;56.456;-3.120;2023-11-19T10:03:25;3.88;;;1.85;;
13356;SDS011;6747;56.456;-3.120;2023-11-19T10:05:53;2.28;;;1.90;;
13356;SDS011;6747;56.456;-3.120;2023-11-19T10:08:22;3.70;;;2.10;;
13356;SDS011;6747;56.456;-3.120;2023-11-19T10:10:49;3.05;;;2.10;;
13356;SDS011;6747;56.456;-3.120;2023-11-19T10:13:17;3.92;;;1.80;;
13356;SDS011;6747;56.456;-3.120;2023-11-19T10:15:46;2.10;;;1.90;;
13356;SDS011;6747;56.456;-3.120;2023-11-19T10:18:14;3.70;;;2.03;;
13356;SDS011;6747;56.456;-3.120;2023-11-19T10:20:42;3.65;;;2.08;;
13356;SDS011;6747;56.456;-3.120;2023-11-19T10:23:10;4.47;;;2.15;;
13356;SDS011;6747;56.456;-3.120;2023-11-19T10:25:37;2.22;;;1.83;;
13356;SDS011;6747;56.456;-3.120;2023-11-19T10:28:05;4.40;;;2.33;;
13356;SDS011;6747;56.456;-3.120;2023-11-19T10:30:32;2.40;;;2.00;;
13356;SDS011;6747;56.456;-3.120;2023-11-19T10:33:05;2.38;;;1.70;;
13356;SDS011;6747;56.456;-3.120;2023-11-19T10:35:32;2.33;;;1.75;;
13356;SDS011;6747;56.456;-3.120;2023-11-19T10:38:00;2.55;;;2.00;;
13356;SDS011;6747;56.456;-3.120;2023-11-19T10:40:40;1.63;;;1.52;;
13356;SDS011;6747;56.456;-3.120;2023-11-19T10:43:07;1.95;;;1.83;;
13356;SDS011;6747;56.456;-3.120;2023-11-19T10:45:35;2.10;;;1.85;;
13356;SDS011;6747;56.456;-3.120;2023-11-19T10:48:02;2.38;;;2.10;;
13356;SDS011;6747;56.456;-3.120;2023-11-19T10:50:33;1.48;;;1.38;;
13356;SDS011;6747;56.456;-3.120;2023-11-19T10:53:01;2.05;;;1.45;;
13356;SDS011;6747;56.456;-3.120;2023-11-19T10:55:29;2.55;;;1.58;;
13356;SDS011;6747;56.456;-3.120;2023-11-19T10:57:59;2.42;;;1.10;;
13356;SDS011;6747;56.456;-3.120;2023-11-19T11:00:28;1.40;;;1.10;;
13356;SDS011;6747;56.456;-3.120;2023-11-19T11:03:00;1.40;;;0.90;;
13356;SDS011;6747;56.456;-3.120;2023-11-19T11:05:27;2.60;;;1.33;;
13356;SDS011;6747;56.456;-3.120;2023-11-19T11:07:57;1.10;;;1.10;;
13356;SDS011;6747;56.456;-3.120;2023-11-19T11:10:25;1.27;;;1.00;;
13356;SDS011;6747;56.456;-3.120;2023-11-19T11:12:53;2.17;;;0.88;;
13356;SDS011;6747;56.456;-3.120;2023-11-19T11:15:24;1.10;;;0.63;;
13356;SDS011;6747;56.456;-3.120;2023-11-19T11:17:54;1.17;;;1.08;;
13356;SDS011;6747;56.456;-3.120;2023-11-19T11:20:24;0.75;;;0.73;;
13356;SDS011;6747;56.456;-3.120;2023-11-19T11:22:55;1.77;;;0.57;;
13356;SDS011;6747;56.456;-3.120;2023-11-19T11:25:31;2.63;;;0.50;;
13356;SDS011;6747;56.456;-3.120;2023-11-19T11:30:55;1.13;;;0.68;;
13356;SDS011;6747;56.456;-3.120;2023-11-19T11:33:32;0.50;;;0.50;;
13356;SDS011;6747;56.456;-3.120;2023-11-19T11:36:05;1.15;;;0.60;;
13356;SDS011;6747;56.456;-3.120;2023-11-19T11:38:37;0.85;;;0.57;;
13356;SDS011;6747;56.456;-3.120;2023-11-19T11:41:19;0.47;;;0.47;;
13356;SDS011;6747;56.456;-3.120;2023-11-19T11:43:47;0.40;;;0.40;;
13356;SDS011;6747;56.456;-3.120;2023-11-19T11:49:12;0.88;;;0.30;;
13356;SDS011;6747;56.456;-3.120;2023-11-19T11:52:01;0.20;;;0.20;;
13356;SDS011;6747;56.456;-3.120;2023-11-19T11:54:32;0.22;;;0.22;;
13356;SDS011;6747;56.456;-3.120;2023-11-19T11:57:02;1.05;;;0.35;;
13356;SDS011;6747;56.456;-3.120;2023-11-19T11:59:34;0.10;;;0.10;;
13356;SDS011;6747;56.456;-3.120;2023-11-19T12:02:03;1.15;;;0.40;;
13356;SDS011;6747;56.456;-3.120;2023-11-19T12:04:31;0.60;;;0.20;;
13356;SDS011;6747;56.456;-3.120;2023-11-19T12:07:04;0.95;;;0.30;;
13356;SDS011;6747;56.456;-3.120;2023-11-19T12:09:32;1.52;;;0.40;;
13356;SDS011;6747;56.456;-3.120;2023-11-19T12:12:08;0.15;;;0.15;;
13356;SDS011;6747;56.456;-3.120;2023-11-19T12:17:36;0.30;;;0.22;;
13356;SDS011;6747;56.456;-3.120;2023-11-19T12:20:05;2.20;;;0.30;;
13356;SDS011;6747;56.456;-3.120;2023-11-19T12:22:34;0.15;;;0.15;;
13356;SDS011;6747;56.456;-3.120;2023-11-19T12:25:02;0.85;;;0.22;;
13356;SDS011;6747;56.456;-3.120;2023-11-19T12:27:31;0.82;;;0.32;;
13356;SDS011;6747;56.456;-3.120;2023-11-19T12:29:59;0.20;;;0.20;;
13356;SDS011;6747;56.456;-3.120;2023-11-19T12:32:37;0.32;;;0.10;;
13356;SDS011;6747;56.456;-3.120;2023-11-19T12:35:05;0.52;;;0.32;;
13356;SDS011;6747;56.456;-3.120;2023-11-19T12:37:38;0.77;;;0.30;;
13356;SDS011;6747;56.456;-3.120;2023-11-19T12:40:10;0.88;;;0.40;;
13356;SDS011;6747;56.456;-3.120;2023-11-19T12:42:39;0.75;;;0.30;;
13356;SDS011;6747;56.456;-3.120;2023-11-19T12:45:07;0.20;;;0.20;;
13356;SDS011;6747;56.456;-3.120;2023-11-19T12:47:35;0.52;;;0.40;;
13356;SDS011;6747;56.456;-3.120;2023-11-19T12:50:03;1.17;;;0.98;;
13356;SDS011;6747;56.456;-3.120;2023-11-19T12:52:32;0.70;;;0.45;;
13356;SDS011;6747;56.456;-3.120;2023-11-19T12:54:59;1.67;;;1.15;;
13356;SDS011;6747;56.456;-3.120;2023-11-19T12:57:36;1.92;;;0.40;;
13356;SDS011;6747;56.456;-3.120;2023-11-19T13:00:06;0.52;;;0.52;;
13356;SDS011;6747;56.456;-3.120;2023-11-19T13:02:45;0.20;;;0.20;;
13356;SDS011;6747;56.456;-3.120;2023-11-19T13:05:20;1.05;;;0.50;;
13356;SDS011;6747;56.456;-3.120;2023-11-19T13:07:47;0.50;;;0.30;;
13356;SDS011;6747;56.456;-3.120;2023-11-19T13:10:15;0.30;;;0.30;;
13356;SDS011;6747;56.456;-3.120;2023-11-19T13:12:42;0.43;;;0.43;;
13356;SDS011;6747;56.456;-3.120;2023-11-19T13:15:23;0.45;;;0.45;;
13356;SDS011;6747;56.456;-3.120;2023-11-19T13:17:51;1.52;;;0.35;;
13356;SDS011;6747;56.456;-3.120;2023-11-19T13:20:19;0.60;;;0.60;;
13356;SDS011;6747;56.456;-3.120;2023-11-19T13:22:53;0.60;;;0.60;;
13356;SDS011;6747;56.456;-3.120;2023-11-19T13:25:21;0.65;;;0.30;;
13356;SDS011;6747;56.456;-3.120;2023-11-19T13:27:49;1.35;;;0.38;;
13356;SDS011;6747;56.456;-3.120;2023-11-19T13:30:16;0.40;;;0.30;;
13356;SDS011;6747;56.456;-3.120;2023-11-19T13:32:45;0.30;;;0.30;;
13356;SDS011;6747;56.456;-3.120;2023-11-19T13:35:12;1.08;;;0.40;;
13356;SDS011;6747;56.456;-3.120;2023-11-19T13:37:40;1.20;;;0.50;;
13356;SDS011;6747;56.456;-3.120;2023-11-19T13:40:07;1.35;;;0.50;;
13356;SDS011;6747;56.456;-3.120;2023-11-19T13:42:38;0.93;;;0.40;;
13356;SDS011;6747;56.456;-3.120;2023-11-19T13:45:07;0.32;;;0.32;;
13356;SDS011;6747;56.456;-3.120;2023-11-19T13:47:36;2.83;;;0.50;;
13356;SDS011;6747;56.456;-3.120;2023-11-19T13:50:08;0.20;;;0.20;;
13356;SDS011;6747;56.456;-3.120;2023-11-19T13:52:36;1.20;;;0.70;;
13356;SDS011;6747;56.456;-3.120;2023-11-19T13:55:05;0.32;;;0.32;;
13356;SDS011;6747;56.456;-3.120;2023-11-19T13:57:33;0.20;;;0.20;;
13356;SDS011;6747;56.456;-3.120;2023-11-19T14:00:01;0.32;;;0.32;;
13356;SDS011;6747;56.456;-3.120;2023-11-19T14:02:32;0.73;;;0.35;;
13356;SDS011;6747;56.456;-3.120;2023-11-19T14:04:59;0.40;;;0.40;;
13356;SDS011;6747;56.456;-3.120;2023-11-19T14:07:28;1.65;;;0.38;;
13356;SDS011;6747;56.456;-3.120;2023-11-19T14:09:55;0.40;;;0.40;;
13356;SDS011;6747;56.456;-3.120;2023-11-19T14:12:23;0.52;;;0.43;;
13356;SDS011;6747;56.456;-3.120;2023-11-19T14:14:50;0.88;;;0.57;;
13356;SDS011;6747;56.456;-3.120;2023-11-19T14:17:18;0.40;;;0.32;;
13356;SDS011;6747;56.456;-3.120;2023-11-19T14:19:45;0.30;;;0.30;;
13356;SDS011;6747;56.456;-3.120;2023-11-19T14:22:12;0.50;;;0.40;;
13356;SDS011;6747;56.456;-3.120;2023-11-19T14:24:44;0.40;;;0.40;;
13356;SDS011;6747;56.456;-3.120;2023-11-19T14:27:14;1.55;;;0.45;;
13356;SDS011;6747;56.456;-3.120;2023-11-19T14:29:42;0.73;;;0.50;;
13356;SDS011;6747;56.456;-3.120;2023-11-19T14:38:23;0.90;;;0.60;;
13356;SDS011;6747;56.456;-3.120;2023-11-19T14:40:53;1.48;;;0.50;;
13356;SDS011;6747;56.456;-3.120;2023-11-19T14:43:21;0.52;;;0.52;;
13356;SDS011;6747;56.456;-3.120;2023-11-19T14:45:49;1.00;;;0.60;;
13356;SDS011;6747;56.456;-3.120;2023-11-19T14:48:17;0.55;;;0.55;;
13356;SDS011;6747;56.456;-3.120;2023-11-19T14:50:45;0.68;;;0.68;;
13356;SDS011;6747;56.456;-3.120;2023-11-19T14:53:14;1.45;;;1.02;;
13356;SDS011;6747;56.456;-3.120;2023-11-19T14:55:42;1.00;;;0.90;;
13356;SDS011;6747;56.456;-3.120;2023-11-19T14:58:11;1.33;;;1.20;;
13356;SDS011;6747;56.456;-3.120;2023-11-19T15:00:39;1.45;;;1.10;;
13356;SDS011;6747;56.456;-3.120;2023-11-19T15:03:07;2.80;;;0.80;;
13356;SDS011;6747;56.456;-3.120;2023-11-19T15:05:35;3.25;;;0.93;;
13356;SDS011;6747;56.456;-3.120;2023-11-19T15:08:02;1.30;;;1.17;;
13356;SDS011;6747;56.456;-3.120;2023-11-19T15:10:30;1.35;;;1.25;;